sensor_id;sensor_type;location;lat;lon;timestamp;P1;durP1;ratioP1;P2;durP2;ratioP2
75620;SDS011;64574;48.506;-2.750;2023-04-03T00:01:15;4.43;;;1.20;;
75620;SDS011;64574;48.506;-2.750;2023-04-03T00:03:41;2.17;;;1.08;;
75620;SDS011;64574;48.506;-2.750;2023-04-03T00:06:07;3.72;;;1.30;;
75620;SDS011;64574;48.506;-2.750;2023-04-03T00:08:35;6.05;;;1.25;;
75620;SDS011;64574;48.506;-2.750;2023-04-03T00:11:01;4.32;;;1.10;;
75620;SDS011;64574;48.506;-2.750;2023-04-03T00:13:27;5.15;;;1.45;;
75620;SDS011;64574;48.506;-2.750;2023-04-03T00:15:53;4.50;;;1.05;;
75620;SDS011;64574;48.506;-2.750;2023-04-03T00:18:19;3.63;;;1.27;;
75620;SDS011;64574;48.506;-2.750;2023-04-03T00:20:45;5.93;;;1.45;;
75620;SDS011;64574;48.506;-2.750;2023-04-03T00:23:11;5.70;;;1.48;;
75620;SDS011;64574;48.506;-2.750;2023-04-03T00:25:37;5.78;;;1.60;;
75620;SDS011;64574;48.506;-2.750;2023-04-03T00:28:03;4.53;;;1.65;;
75620;SDS011;64574;48.506;-2.750;2023-04-03T00:30:29;7.50;;;1.70;;
75620;SDS011;64574;48.506;-2.750;2023-04-03T00:32:55;2.83;;;1.30;;
75620;SDS011;64574;48.506;-2.750;2023-04-03T00:35:21;5.45;;;2.03;;
75620;SDS011;64574;48.506;-2.750;2023-04-03T00:37:50;4.55;;;1.52;;
75620;SDS011;64574;48.506;-2.750;2023-04-03T00:40:17;3.65;;;1.40;;
75620;SDS011;64574;48.506;-2.750;2023-04-03T00:42:43;3.80;;;1.20;;
75620;SDS011;64574;48.506;-2.750;2023-04-03T00:45:23;3.75;;;1.38;;
75620;SDS011;64574;48.506;-2.750;2023-04-03T00:47:52;3.80;;;1.55;;
75620;SDS011;64574;48.506;-2.750;2023-04-03T00:50:18;3.53;;;1.00;;
75620;SDS011;64574;48.506;-2.750;2023-04-03T00:52:44;4.38;;;1.30;;
75620;SDS011;64574;48.506;-2.750;2023-04-03T00:55:11;7.28;;;1.45;;
75620;SDS011;64574;48.506;-2.750;2023-04-03T00:57:39;8.27;;;1.85;;
75620;SDS011;64574;48.506;-2.750;2023-04-03T01:00:07;4.65;;;1.65;;
75620;SDS011;64574;48.506;-2.750;2023-04-03T01:02:35;5.25;;;1.67;;
75620;SDS011;64574;48.506;-2.750;2023-04-03T01:05:01;6.65;;;1.70;;
75620;SDS011;64574;48.506;-2.750;2023-04-03T01:07:29;2.83;;;1.20;;
75620;SDS011;64574;48.506;-2.750;2023-04-03T01:09:56;3.53;;;1.27;;
75620;SDS011;64574;48.506;-2.750;2023-04-03T01:12:28;5.30;;;1.92;;
75620;SDS011;64574;48.506;-2.750;2023-04-03T01:14:56;4.03;;;1.70;;
75620;SDS011;64574;48.506;-2.750;2023-04-03T01:25:36;5.45;;;1.90;;
75620;SDS011;64574;48.506;-2.750;2023-04-03T01:28:06;3.45;;;1.40;;
75620;SDS011;64574;48.506;-2.750;2023-04-03T01:30:35;3.85;;;1.63;;
75620;SDS011;64574;48.506;-2.750;2023-04-03T01:33:06;4.78;;;1.35;;
75620;SDS011;64574;48.506;-2.750;2023-04-03T01:35:32;6.53;;;1.80;;
75620;SDS011;64574;48.506;-2.750;2023-04-03T01:37:57;5.13;;;1.65;;
75620;SDS011;64574;48.506;-2.750;2023-04-03T01:40:23;4.43;;;1.70;;
75620;SDS011;64574;48.506;-2.750;2023-04-03T01:42:49;4.22;;;2.00;;
75620;SDS011;64574;48.506;-2.750;2023-04-03T01:45:14;4.78;;;1.65;;
75620;SDS011;64574;48.506;-2.750;2023-04-03T01:47:40;4.10;;;1.48;;
75620;SDS011;64574;48.506;-2.750;2023-04-03T01:50:05;5.40;;;1.40;;
75620;SDS011;64574;48.506;-2.750;2023-04-03T01:52:31;4.65;;;1.25;;
75620;SDS011;64574;48.506;-2.750;2023-04-03T01:54:57;8.27;;;2.05;;
75620;SDS011;64574;48.506;-2.750;2023-04-03T01:57:22;6.80;;;1.85;;
75620;SDS011;64574;48.506;-2.750;2023-04-03T01:59:48;3.35;;;1.30;;
75620;SDS011;64574;48.506;-2.750;2023-04-03T02:02:13;4.35;;;1.80;;
75620;SDS011;64574;48.506;-2.750;2023-04-03T02:04:39;5.72;;;1.98;;
75620;SDS011;64574;48.506;-2.750;2023-04-03T02:07:05;8.93;;;2.38;;
75620;SDS011;64574;48.506;-2.750;2023-04-03T02:09:31;5.10;;;1.80;;
75620;SDS011;64574;48.506;-2.750;2023-04-03T02:11:57;7.35;;;2.15;;
75620;SDS011;64574;48.506;-2.750;2023-04-03T02:14:23;3.97;;;1.80;;
75620;SDS011;64574;48.506;-2.750;2023-04-03T02:16:49;6.65;;;2.13;;
75620;SDS011;64574;48.506;-2.750;2023-04-03T02:19:15;7.68;;;2.05;;
75620;SDS011;64574;48.506;-2.750;2023-04-03T02:21:40;7.22;;;1.90;;
75620;SDS011;64574;48.506;-2.750;2023-04-03T02:24:06;9.05;;;2.42;;
75620;SDS011;64574;48.506;-2.750;2023-04-03T02:26:32;7.10;;;2.80;;
75620;SDS011;64574;48.506;-2.750;2023-04-03T02:28:58;6.03;;;2.03;;
75620;SDS011;64574;48.506;-2.750;2023-04-03T02:31:24;9.15;;;3.88;;
75620;SDS011;64574;48.506;-2.750;2023-04-03T02:33:50;10.20;;;2.42;;
75620;SDS011;64574;48.506;-2.750;2023-04-03T02:36:16;11.35;;;2.38;;
75620;SDS011;64574;48.506;-2.750;2023-04-03T02:38:41;7.30;;;1.73;;
75620;SDS011;64574;48.506;-2.750;2023-04-03T02:41:08;8.32;;;2.15;;
75620;SDS011;64574;48.506;-2.750;2023-04-03T02:43:36;9.75;;;2.30;;
75620;SDS011;64574;48.506;-2.750;2023-04-03T02:46:02;11.40;;;2.10;;
75620;SDS011;64574;48.506;-2.750;2023-04-03T02:48:28;9.50;;;2.45;;
75620;SDS011;64574;48.506;-2.750;2023-04-03T02:50:53;11.18;;;2.55;;
75620;SDS011;64574;48.506;-2.750;2023-04-03T02:53:19;6.30;;;1.95;;
75620;SDS011;64574;48.506;-2.750;2023-04-03T02:55:45;8.00;;;2.03;;
75620;SDS011;64574;48.506;-2.750;2023-04-03T02:58:11;7.45;;;2.00;;
75620;SDS011;64574;48.506;-2.750;2023-04-03T03:00:37;9.43;;;2.30;;
75620;SDS011;64574;48.506;-2.750;2023-04-03T03:03:03;9.13;;;1.85;;
75620;SDS011;64574;48.506;-2.750;2023-04-03T03:05:29;7.15;;;2.20;;
75620;SDS011;64574;48.506;-2.750;2023-04-03T03:07:55;7.55;;;1.52;;
75620;SDS011;64574;48.506;-2.750;2023-04-03T03:10:21;10.25;;;2.10;;
75620;SDS011;64574;48.506;-2.750;2023-04-03T03:12:48;7.82;;;2.15;;
75620;SDS011;64574;48.506;-2.750;2023-04-03T03:15:13;7.70;;;2.10;;
75620;SDS011;64574;48.506;-2.750;2023-04-03T03:17:40;5.47;;;1.40;;
75620;SDS011;64574;48.506;-2.750;2023-04-03T03:20:06;6.60;;;1.70;;
75620;SDS011;64574;48.506;-2.750;2023-04-03T03:22:33;6.68;;;1.52;;
75620;SDS011;64574;48.506;-2.750;2023-04-03T03:24:59;7.97;;;1.52;;
75620;SDS011;64574;48.506;-2.750;2023-04-03T03:27:26;9.88;;;2.05;;
75620;SDS011;64574;48.506;-2.750;2023-04-03T03:29:52;6.80;;;1.60;;
75620;SDS011;64574;48.506;-2.750;2023-04-03T03:32:17;8.00;;;2.30;;
75620;SDS011;64574;48.506;-2.750;2023-04-03T03:34:43;4.38;;;1.65;;
75620;SDS011;64574;48.506;-2.750;2023-04-03T03:37:08;8.65;;;1.73;;
75620;SDS011;64574;48.506;-2.750;2023-04-03T03:39:34;8.13;;;1.60;;
75620;SDS011;64574;48.506;-2.750;2023-04-03T03:42:00;4.82;;;1.65;;
75620;SDS011;64574;48.506;-2.750;2023-04-03T03:44:25;5.03;;;1.58;;
75620;SDS011;64574;48.506;-2.750;2023-04-03T03:46:52;8.13;;;2.13;;
75620;SDS011;64574;48.506;-2.750;2023-04-03T03:49:18;7.45;;;1.85;;
75620;SDS011;64574;48.506;-2.750;2023-04-03T03:51:44;8.30;;;2.22;;
75620;SDS011;64574;48.506;-2.750;2023-04-03T03:54:10;7.10;;;1.50;;
75620;SDS011;64574;48.506;-2.750;2023-04-03T03:56:36;9.57;;;1.63;;
75620;SDS011;64574;48.506;-2.750;2023-04-03T03:59:01;3.67;;;1.20;;
75620;SDS011;64574;48.506;-2.750;2023-04-03T04:01:27;5.22;;;1.25;;
75620;SDS011;64574;48.506;-2.750;2023-04-03T04:03:53;5.82;;;1.38;;
75620;SDS011;64574;48.506;-2.750;2023-04-03T04:06:22;2.72;;;0.90;;
75620;SDS011;64574;48.506;-2.750;2023-04-03T04:08:47;4.25;;;0.90;;
75620;SDS011;64574;48.506;-2.750;2023-04-03T04:11:13;6.45;;;3.60;;
75620;SDS011;64574;48.506;-2.750;2023-04-03T04:13:39;6.60;;;2.90;;
75620;SDS011;64574;48.506;-2.750;2023-04-03T04:16:05;3.63;;;1.13;;
75620;SDS011;64574;48.506;-2.750;2023-04-03T04:18:31;3.72;;;1.30;;
75620;SDS011;64574;48.506;-2.750;2023-04-03T04:20:57;5.47;;;1.40;;
75620;SDS011;64574;48.506;-2.750;2023-04-03T04:23:23;6.38;;;1.20;;
75620;SDS011;64574;48.506;-2.750;2023-04-03T04:25:49;7.70;;;1.40;;
75620;SDS011;64574;48.506;-2.750;2023-04-03T04:28:15;6.20;;;1.17;;
75620;SDS011;64574;48.506;-2.750;2023-04-03T04:30:42;2.88;;;1.05;;
75620;SDS011;64574;48.506;-2.750;2023-04-03T04:33:08;3.15;;;0.93;;
75620;SDS011;64574;48.506;-2.750;2023-04-03T04:35:33;4.70;;;1.00;;
75620;SDS011;64574;48.506;-2.750;2023-04-03T04:37:59;8.48;;;1.35;;
75620;SDS011;64574;48.506;-2.750;2023-04-03T04:40:25;2.65;;;1.25;;
75620;SDS011;64574;48.506;-2.750;2023-04-03T04:42:51;7.00;;;1.15;;
75620;SDS011;64574;48.506;-2.750;2023-04-03T04:45:17;5.30;;;1.10;;
75620;SDS011;64574;48.506;-2.750;2023-04-03T04:47:43;5.20;;;1.10;;
75620;SDS011;64574;48.506;-2.750;2023-04-03T04:50:09;5.28;;;1.63;;
75620;SDS011;64574;48.506;-2.750;2023-04-03T04:52:34;5.05;;;1.52;;
75620;SDS011;64574;48.506;-2.750;2023-04-03T04:55:00;4.15;;;1.00;;
75620;SDS011;64574;48.506;-2.750;2023-04-03T04:57:26;4.30;;;0.88;;
75620;SDS011;64574;48.506;-2.750;2023-04-03T04:59:52;8.80;;;1.20;;
75620;SDS011;64574;48.506;-2.750;2023-04-03T05:02:17;3.95;;;1.10;;
75620;SDS011;64574;48.506;-2.750;2023-04-03T05:04:43;5.85;;;1.00;;
75620;SDS011;64574;48.506;-2.750;2023-04-03T05:07:09;6.00;;;1.48;;
75620;SDS011;64574;48.506;-2.750;2023-04-03T05:09:35;6.75;;;1.38;;
75620;SDS011;64574;48.506;-2.750;2023-04-03T05:12:00;6.53;;;0.98;;
75620;SDS011;64574;48.506;-2.750;2023-04-03T05:14:27;4.60;;;0.90;;
75620;SDS011;64574;48.506;-2.750;2023-04-03T05:16:53;3.05;;;0.73;;
75620;SDS011;64574;48.506;-2.750;2023-04-03T05:19:19;2.67;;;0.77;;
75620;SDS011;64574;48.506;-2.750;2023-04-03T05:21:46;8.45;;;1.08;;
75620;SDS011;64574;48.506;-2.750;2023-04-03T05:24:11;5.78;;;1.35;;
75620;SDS011;64574;48.506;-2.750;2023-04-03T05:26:37;8.70;;;1.45;;
75620;SDS011;64574;48.506;-2.750;2023-04-03T05:29:03;4.47;;;0.90;;
75620;SDS011;64574;48.506;-2.750;2023-04-03T05:31:29;5.05;;;0.85;;
75620;SDS011;64574;48.506;-2.750;2023-04-03T05:33:55;5.47;;;1.17;;
75620;SDS011;64574;48.506;-2.750;2023-04-03T05:36:21;6.18;;;1.00;;
75620;SDS011;64574;48.506;-2.750;2023-04-03T05:38:47;4.38;;;0.80;;
75620;SDS011;64574;48.506;-2.750;2023-04-03T05:41:13;5.20;;;1.00;;
75620;SDS011;64574;48.506;-2.750;2023-04-03T05:43:39;3.53;;;0.80;;
75620;SDS011;64574;48.506;-2.750;2023-04-03T05:46:12;4.50;;;0.63;;
75620;SDS011;64574;48.506;-2.750;2023-04-03T05:48:39;6.60;;;1.00;;
75620;SDS011;64574;48.506;-2.750;2023-04-03T05:51:06;7.03;;;0.98;;
75620;SDS011;64574;48.506;-2.750;2023-04-03T05:53:35;1.98;;;0.90;;
75620;SDS011;64574;48.506;-2.750;2023-04-03T05:56:04;6.13;;;1.10;;
75620;SDS011;64574;48.506;-2.750;2023-04-03T05:58:30;7.22;;;0.85;;
75620;SDS011;64574;48.506;-2.750;2023-04-03T06:00:56;6.40;;;1.10;;
75620;SDS011;64574;48.506;-2.750;2023-04-03T06:03:22;6.00;;;1.15;;
75620;SDS011;64574;48.506;-2.750;2023-04-03T06:05:48;6.25;;;0.90;;
75620;SDS011;64574;48.506;-2.750;2023-04-03T06:08:14;4.50;;;0.60;;
75620;SDS011;64574;48.506;-2.750;2023-04-03T06:10:40;1.63;;;0.63;;
75620;SDS011;64574;48.506;-2.750;2023-04-03T06:13:06;5.85;;;0.90;;
75620;SDS011;64574;48.506;-2.750;2023-04-03T06:15:32;4.90;;;0.80;;
75620;SDS011;64574;48.506;-2.750;2023-04-03T06:17:57;6.55;;;1.48;;
75620;SDS011;64574;48.506;-2.750;2023-04-03T06:20:23;4.03;;;0.70;;
75620;SDS011;64574;48.506;-2.750;2023-04-03T06:22:49;8.60;;;1.42;;
75620;SDS011;64574;48.506;-2.750;2023-04-03T06:25:15;5.47;;;0.98;;
75620;SDS011;64574;48.506;-2.750;2023-04-03T06:27:43;5.78;;;1.20;;
75620;SDS011;64574;48.506;-2.750;2023-04-03T06:30:09;6.80;;;1.10;;
75620;SDS011;64574;48.506;-2.750;2023-04-03T06:32:36;9.95;;;1.75;;
75620;SDS011;64574;48.506;-2.750;2023-04-03T06:35:02;3.63;;;1.10;;
75620;SDS011;64574;48.506;-2.750;2023-04-03T06:37:30;10.27;;;1.60;;
75620;SDS011;64574;48.506;-2.750;2023-04-03T06:39:56;7.60;;;1.38;;
75620;SDS011;64574;48.506;-2.750;2023-04-03T06:42:22;6.70;;;1.58;;
75620;SDS011;64574;48.506;-2.750;2023-04-03T06:44:48;6.80;;;1.10;;
75620;SDS011;64574;48.506;-2.750;2023-04-03T06:47:14;4.63;;;1.10;;
75620;SDS011;64574;48.506;-2.750;2023-04-03T06:49:41;6.30;;;1.45;;
75620;SDS011;64574;48.506;-2.750;2023-04-03T06:52:08;4.20;;;0.98;;
75620;SDS011;64574;48.506;-2.750;2023-04-03T06:54:34;3.80;;;0.90;;
75620;SDS011;64574;48.506;-2.750;2023-04-03T06:57:00;3.75;;;1.17;;
75620;SDS011;64574;48.506;-2.750;2023-04-03T06:59:27;5.05;;;1.20;;
75620;SDS011;64574;48.506;-2.750;2023-04-03T07:01:53;8.50;;;1.20;;
75620;SDS011;64574;48.506;-2.750;2023-04-03T07:04:18;6.22;;;0.90;;
75620;SDS011;64574;48.506;-2.750;2023-04-03T07:06:45;6.20;;;1.10;;
75620;SDS011;64574;48.506;-2.750;2023-04-03T07:09:13;4.70;;;1.00;;
75620;SDS011;64574;48.506;-2.750;2023-04-03T07:11:40;4.78;;;1.30;;
75620;SDS011;64574;48.506;-2.750;2023-04-03T07:14:06;3.78;;;0.90;;
75620;SDS011;64574;48.506;-2.750;2023-04-03T07:16:33;5.05;;;1.10;;
75620;SDS011;64574;48.506;-2.750;2023-04-03T07:19:00;5.78;;;1.10;;
75620;SDS011;64574;48.506;-2.750;2023-04-03T07:21:26;6.57;;;1.30;;
75620;SDS011;64574;48.506;-2.750;2023-04-03T07:23:53;5.57;;;1.35;;
75620;SDS011;64574;48.506;-2.750;2023-04-03T07:26:19;5.85;;;1.38;;
75620;SDS011;64574;48.506;-2.750;2023-04-03T07:28:46;5.10;;;1.30;;
75620;SDS011;64574;48.506;-2.750;2023-04-03T07:31:14;4.85;;;1.30;;
75620;SDS011;64574;48.506;-2.750;2023-04-03T07:33:41;5.30;;;1.58;;
75620;SDS011;64574;48.506;-2.750;2023-04-03T07:36:08;5.60;;;1.25;;
75620;SDS011;64574;48.506;-2.750;2023-04-03T07:38:36;4.95;;;1.60;;
75620;SDS011;64574;48.506;-2.750;2023-04-03T07:41:02;6.70;;;1.77;;
75620;SDS011;64574;48.506;-2.750;2023-04-03T07:43:28;4.43;;;1.48;;
75620;SDS011;64574;48.506;-2.750;2023-04-03T07:45:54;4.40;;;1.33;;
75620;SDS011;64574;48.506;-2.750;2023-04-03T07:48:20;6.70;;;1.60;;
75620;SDS011;64574;48.506;-2.750;2023-04-03T07:50:47;7.05;;;1.60;;
75620;SDS011;64574;48.506;-2.750;2023-04-03T07:53:14;6.00;;;1.60;;
75620;SDS011;64574;48.506;-2.750;2023-04-03T07:55:40;4.32;;;1.42;;
75620;SDS011;64574;48.506;-2.750;2023-04-03T07:58:13;12.77;;;2.13;;
75620;SDS011;64574;48.506;-2.750;2023-04-03T08:00:40;6.28;;;1.85;;
75620;SDS011;64574;48.506;-2.750;2023-04-03T08:03:06;5.38;;;1.80;;
75620;SDS011;64574;48.506;-2.750;2023-04-03T08:05:37;7.85;;;2.00;;
75620;SDS011;64574;48.506;-2.750;2023-04-03T08:08:04;5.32;;;1.65;;
75620;SDS011;64574;48.506;-2.750;2023-04-03T08:10:31;4.82;;;2.22;;
75620;SDS011;64574;48.506;-2.750;2023-04-03T08:12:57;5.22;;;2.13;;
75620;SDS011;64574;48.506;-2.750;2023-04-03T08:15:23;6.03;;;1.90;;
75620;SDS011;64574;48.506;-2.750;2023-04-03T08:17:49;5.38;;;2.05;;
75620;SDS011;64574;48.506;-2.750;2023-04-03T08:20:15;7.78;;;2.50;;
75620;SDS011;64574;48.506;-2.750;2023-04-03T08:22:42;8.32;;;2.67;;
75620;SDS011;64574;48.506;-2.750;2023-04-03T08:25:08;5.30;;;2.50;;
75620;SDS011;64574;48.506;-2.750;2023-04-03T08:27:34;5.47;;;2.17;;
75620;SDS011;64574;48.506;-2.750;2023-04-03T08:30:00;5.50;;;1.90;;
75620;SDS011;64574;48.506;-2.750;2023-04-03T08:32:26;5.32;;;2.15;;
75620;SDS011;64574;48.506;-2.750;2023-04-03T08:34:52;4.18;;;1.95;;
75620;SDS011;64574;48.506;-2.750;2023-04-03T08:37:17;6.95;;;2.15;;
75620;SDS011;64574;48.506;-2.750;2023-04-03T08:39:44;9.30;;;2.33;;
75620;SDS011;64574;48.506;-2.750;2023-04-03T08:42:22;5.88;;;2.20;;
75620;SDS011;64574;48.506;-2.750;2023-04-03T08:45:07;4.28;;;2.00;;
75620;SDS011;64574;48.506;-2.750;2023-04-03T08:47:40;6.00;;;2.08;;
75620;SDS011;64574;48.506;-2.750;2023-04-03T08:50:12;6.00;;;2.30;;
75620;SDS011;64574;48.506;-2.750;2023-04-03T08:52:54;7.30;;;2.55;;
75620;SDS011;64574;48.506;-2.750;2023-04-03T08:58:22;3.83;;;1.88;;
75620;SDS011;64574;48.506;-2.750;2023-04-03T09:03:24;4.28;;;2.15;;
75620;SDS011;64574;48.506;-2.750;2023-04-03T09:06:32;6.07;;;2.17;;
75620;SDS011;64574;48.506;-2.750;2023-04-03T09:09:02;5.22;;;2.40;;
75620;SDS011;64574;48.506;-2.750;2023-04-03T09:14:33;3.83;;;2.03;;
75620;SDS011;64574;48.506;-2.750;2023-04-03T09:17:09;5.93;;;2.50;;
75620;SDS011;64574;48.506;-2.750;2023-04-03T09:22:34;6.05;;;2.45;;
75620;SDS011;64574;48.506;-2.750;2023-04-03T09:25:13;5.75;;;2.33;;
75620;SDS011;64574;48.506;-2.750;2023-04-03T09:27:41;5.70;;;2.65;;
75620;SDS011;64574;48.506;-2.750;2023-04-03T09:30:12;6.07;;;2.38;;
75620;SDS011;64574;48.506;-2.750;2023-04-03T09:32:53;5.70;;;2.65;;
75620;SDS011;64574;48.506;-2.750;2023-04-03T09:35:21;4.55;;;2.55;;
75620;SDS011;64574;48.506;-2.750;2023-04-03T09:37:58;5.13;;;2.55;;
75620;SDS011;64574;48.506;-2.750;2023-04-03T09:40:41;5.05;;;2.58;;
75620;SDS011;64574;48.506;-2.750;2023-04-03T09:45:56;4.63;;;2.67;;
75620;SDS011;64574;48.506;-2.750;2023-04-03T09:48:52;6.72;;;3.50;;
75620;SDS011;64574;48.506;-2.750;2023-04-03T09:53:51;4.72;;;3.75;;
75620;SDS011;64574;48.506;-2.750;2023-04-03T09:58:49;5.28;;;3.10;;
75620;SDS011;64574;48.506;-2.750;2023-04-03T10:01:30;6.60;;;4.03;;
75620;SDS011;64574;48.506;-2.750;2023-04-03T10:04:17;6.95;;;3.60;;
75620;SDS011;64574;48.506;-2.750;2023-04-03T10:06:48;5.65;;;3.25;;
75620;SDS011;64574;48.506;-2.750;2023-04-03T10:09:28;6.68;;;3.15;;
75620;SDS011;64574;48.506;-2.750;2023-04-03T10:14:32;6.57;;;3.78;;
75620;SDS011;64574;48.506;-2.750;2023-04-03T10:19:41;6.22;;;4.20;;
75620;SDS011;64574;48.506;-2.750;2023-04-03T10:23:15;9.40;;;3.70;;
75620;SDS011;64574;48.506;-2.750;2023-04-03T10:25:21;6.65;;;4.60;;
75620;SDS011;64574;48.506;-2.750;2023-04-03T10:28:05;5.68;;;3.80;;
75620;SDS011;64574;48.506;-2.750;2023-04-03T10:39:41;7.85;;;4.60;;
75620;SDS011;64574;48.506;-2.750;2023-04-03T10:50:51;9.75;;;4.78;;
75620;SDS011;64574;48.506;-2.750;2023-04-03T10:56:11;4.78;;;3.88;;
75620;SDS011;64574;48.506;-2.750;2023-04-03T10:58:55;7.93;;;4.85;;
75620;SDS011;64574;48.506;-2.750;2023-04-03T11:01:29;6.88;;;4.40;;
75620;SDS011;64574;48.506;-2.750;2023-04-03T11:03:58;9.80;;;4.90;;
75620;SDS011;64574;48.506;-2.750;2023-04-03T11:06:26;11.90;;;5.07;;
75620;SDS011;64574;48.506;-2.750;2023-04-03T11:09:22;7.28;;;4.63;;
75620;SDS011;64574;48.506;-2.750;2023-04-03T11:11:56;6.45;;;4.82;;
75620;SDS011;64574;48.506;-2.750;2023-04-03T11:14:32;5.85;;;4.78;;
75620;SDS011;64574;48.506;-2.750;2023-04-03T11:17:11;7.95;;;5.38;;
75620;SDS011;64574;48.506;-2.750;2023-04-03T11:22:41;5.72;;;4.40;;
75620;SDS011;64574;48.506;-2.750;2023-04-03T11:30:39;6.80;;;4.65;;
75620;SDS011;64574;48.506;-2.750;2023-04-03T11:33:45;6.10;;;4.28;;
75620;SDS011;64574;48.506;-2.750;2023-04-03T11:36:33;7.85;;;3.92;;
75620;SDS011;64574;48.506;-2.750;2023-04-03T11:39:14;8.77;;;4.85;;
75620;SDS011;64574;48.506;-2.750;2023-04-03T11:41:49;4.45;;;3.65;;
75620;SDS011;64574;48.506;-2.750;2023-04-03T11:47:02;9.77;;;5.40;;
75620;SDS011;64574;48.506;-2.750;2023-04-03T12:38:37;11.13;;;5.80;;
75620;SDS011;64574;48.506;-2.750;2023-04-03T12:47:28;12.48;;;7.10;;
75620;SDS011;64574;48.506;-2.750;2023-04-03T12:49:54;10.77;;;6.60;;
75620;SDS011;64574;48.506;-2.750;2023-04-03T12:55:01;10.73;;;6.90;;
75620;SDS011;64574;48.506;-2.750;2023-04-03T12:57:29;12.27;;;7.80;;
75620;SDS011;64574;48.506;-2.750;2023-04-03T12:59:55;11.30;;;7.57;;
75620;SDS011;64574;48.506;-2.750;2023-04-03T13:02:22;11.02;;;7.55;;
75620;SDS011;64574;48.506;-2.750;2023-04-03T13:04:51;13.88;;;8.70;;
75620;SDS011;64574;48.506;-2.750;2023-04-03T13:07:22;14.30;;;8.50;;
75620;SDS011;64574;48.506;-2.750;2023-04-03T13:10:00;14.43;;;7.93;;
75620;SDS011;64574;48.506;-2.750;2023-04-03T13:12:28;12.90;;;7.90;;
75620;SDS011;64574;48.506;-2.750;2023-04-03T13:14:55;12.68;;;7.68;;
75620;SDS011;64574;48.506;-2.750;2023-04-03T13:17:23;13.30;;;8.10;;
75620;SDS011;64574;48.506;-2.750;2023-04-03T13:19:49;11.68;;;7.70;;
75620;SDS011;64574;48.506;-2.750;2023-04-03T13:22:30;13.68;;;8.50;;
75620;SDS011;64574;48.506;-2.750;2023-04-03T13:25:04;14.52;;;8.40;;
75620;SDS011;64574;48.506;-2.750;2023-04-03T13:27:33;15.38;;;8.60;;
75620;SDS011;64574;48.506;-2.750;2023-04-03T13:29:59;14.15;;;8.00;;
75620;SDS011;64574;48.506;-2.750;2023-04-03T13:32:27;12.15;;;7.82;;
75620;SDS011;64574;48.506;-2.750;2023-04-03T13:34:54;14.25;;;8.27;;
75620;SDS011;64574;48.506;-2.750;2023-04-03T13:37:24;20.02;;;8.93;;
75620;SDS011;64574;48.506;-2.750;2023-04-03T13:39:59;12.82;;;9.02;;
75620;SDS011;64574;48.506;-2.750;2023-04-03T13:42:37;14.25;;;8.20;;
75620;SDS011;64574;48.506;-2.750;2023-04-03T13:45:22;13.35;;;8.65;;
75620;SDS011;64574;48.506;-2.750;2023-04-03T13:48:05;13.57;;;8.48;;
75620;SDS011;64574;48.506;-2.750;2023-04-03T13:50:40;15.20;;;8.75;;
75620;SDS011;64574;48.506;-2.750;2023-04-03T13:56:44;15.45;;;9.27;;
75620;SDS011;64574;48.506;-2.750;2023-04-03T14:04:13;13.43;;;8.45;;
75620;SDS011;64574;48.506;-2.750;2023-04-03T14:06:44;14.07;;;8.93;;
75620;SDS011;64574;48.506;-2.750;2023-04-03T14:09:11;14.45;;;8.55;;
75620;SDS011;64574;48.506;-2.750;2023-04-03T14:11:37;11.57;;;8.20;;
75620;SDS011;64574;48.506;-2.750;2023-04-03T14:14:06;14.00;;;9.38;;
75620;SDS011;64574;48.506;-2.750;2023-04-03T14:17:03;11.90;;;7.95;;
75620;SDS011;64574;48.506;-2.750;2023-04-03T14:19:40;13.85;;;8.93;;
75620;SDS011;64574;48.506;-2.750;2023-04-03T14:22:10;11.88;;;7.65;;
75620;SDS011;64574;48.506;-2.750;2023-04-03T14:24:43;13.40;;;8.23;;
75620;SDS011;64574;48.506;-2.750;2023-04-03T14:27:22;12.30;;;8.18;;
75620;SDS011;64574;48.506;-2.750;2023-04-03T14:29:54;13.95;;;8.35;;
75620;SDS011;64574;48.506;-2.750;2023-04-03T14:32:21;16.40;;;8.95;;
75620;SDS011;64574;48.506;-2.750;2023-04-03T14:34:48;14.38;;;8.80;;
75620;SDS011;64574;48.506;-2.750;2023-04-03T14:39:44;12.18;;;8.07;;
75620;SDS011;64574;48.506;-2.750;2023-04-03T14:42:15;16.15;;;8.80;;
75620;SDS011;64574;48.506;-2.750;2023-04-03T14:44:42;13.02;;;7.20;;
75620;SDS011;64574;48.506;-2.750;2023-04-03T14:47:12;13.48;;;8.20;;
75620;SDS011;64574;48.506;-2.750;2023-04-03T14:49:39;11.90;;;8.13;;
75620;SDS011;64574;48.506;-2.750;2023-04-03T14:52:05;12.10;;;7.68;;
75620;SDS011;64574;48.506;-2.750;2023-04-03T14:54:31;12.27;;;7.53;;
75620;SDS011;64574;48.506;-2.750;2023-04-03T14:56:58;17.60;;;9.63;;
75620;SDS011;64574;48.506;-2.750;2023-04-03T14:59:25;15.30;;;8.93;;
75620;SDS011;64574;48.506;-2.750;2023-04-03T15:01:51;12.50;;;7.63;;
75620;SDS011;64574;48.506;-2.750;2023-04-03T15:04:20;16.10;;;8.60;;
75620;SDS011;64574;48.506;-2.750;2023-04-03T15:06:46;11.07;;;7.80;;
75620;SDS011;64574;48.506;-2.750;2023-04-03T15:09:23;13.27;;;8.40;;
75620;SDS011;64574;48.506;-2.750;2023-04-03T15:11:51;12.45;;;7.45;;
75620;SDS011;64574;48.506;-2.750;2023-04-03T15:14:18;14.10;;;8.82;;
75620;SDS011;64574;48.506;-2.750;2023-04-03T15:16:44;10.98;;;8.02;;
75620;SDS011;64574;48.506;-2.750;2023-04-03T15:19:10;10.40;;;8.00;;
75620;SDS011;64574;48.506;-2.750;2023-04-03T15:21:37;14.70;;;7.80;;
75620;SDS011;64574;48.506;-2.750;2023-04-03T15:24:03;10.95;;;7.75;;
75620;SDS011;64574;48.506;-2.750;2023-04-03T15:26:29;9.63;;;7.30;;
75620;SDS011;64574;48.506;-2.750;2023-04-03T15:28:56;12.77;;;6.90;;
75620;SDS011;64574;48.506;-2.750;2023-04-03T15:31:21;13.40;;;7.43;;
75620;SDS011;64574;48.506;-2.750;2023-04-03T15:33:47;9.88;;;6.88;;
75620;SDS011;64574;48.506;-2.750;2023-04-03T15:36:13;9.60;;;6.82;;
75620;SDS011;64574;48.506;-2.750;2023-04-03T15:38:38;9.10;;;6.22;;
75620;SDS011;64574;48.506;-2.750;2023-04-03T15:41:05;12.02;;;6.85;;
75620;SDS011;64574;48.506;-2.750;2023-04-03T15:43:30;10.35;;;7.15;;
75620;SDS011;64574;48.506;-2.750;2023-04-03T15:45:58;12.63;;;7.70;;
75620;SDS011;64574;48.506;-2.750;2023-04-03T15:48:25;13.23;;;7.75;;
75620;SDS011;64574;48.506;-2.750;2023-04-03T15:50:51;10.85;;;7.15;;
75620;SDS011;64574;48.506;-2.750;2023-04-03T15:53:17;14.60;;;7.97;;
75620;SDS011;64574;48.506;-2.750;2023-04-03T15:55:42;11.38;;;7.97;;
75620;SDS011;64574;48.506;-2.750;2023-04-03T15:58:08;11.85;;;7.10;;
75620;SDS011;64574;48.506;-2.750;2023-04-03T16:00:34;11.95;;;7.32;;
75620;SDS011;64574;48.506;-2.750;2023-04-03T16:03:02;10.68;;;7.13;;
75620;SDS011;64574;48.506;-2.750;2023-04-03T16:05:31;10.85;;;7.40;;
75620;SDS011;64574;48.506;-2.750;2023-04-03T16:07:58;10.07;;;7.07;;
75620;SDS011;64574;48.506;-2.750;2023-04-03T16:10:25;10.98;;;6.60;;
75620;SDS011;64574;48.506;-2.750;2023-04-03T16:12:51;9.18;;;6.40;;
75620;SDS011;64574;48.506;-2.750;2023-04-03T16:15:17;11.93;;;7.32;;
75620;SDS011;64574;48.506;-2.750;2023-04-03T16:17:43;11.10;;;6.70;;
75620;SDS011;64574;48.506;-2.750;2023-04-03T16:20:10;11.35;;;6.68;;
75620;SDS011;64574;48.506;-2.750;2023-04-03T16:22:37;9.05;;;6.28;;
75620;SDS011;64574;48.506;-2.750;2023-04-03T16:25:05;10.77;;;6.72;;
75620;SDS011;64574;48.506;-2.750;2023-04-03T16:27:31;9.25;;;6.47;;
75620;SDS011;64574;48.506;-2.750;2023-04-03T16:29:57;9.45;;;6.15;;
75620;SDS011;64574;48.506;-2.750;2023-04-03T16:32:27;9.45;;;6.18;;
75620;SDS011;64574;48.506;-2.750;2023-04-03T16:34:55;8.15;;;5.68;;
75620;SDS011;64574;48.506;-2.750;2023-04-03T16:37:21;9.30;;;5.20;;
75620;SDS011;64574;48.506;-2.750;2023-04-03T16:39:47;10.10;;;6.07;;
75620;SDS011;64574;48.506;-2.750;2023-04-03T16:42:13;8.88;;;5.28;;
75620;SDS011;64574;48.506;-2.750;2023-04-03T16:44:39;9.43;;;5.90;;
75620;SDS011;64574;48.506;-2.750;2023-04-03T16:47:05;7.60;;;5.43;;
75620;SDS011;64574;48.506;-2.750;2023-04-03T16:49:31;9.73;;;5.80;;
75620;SDS011;64574;48.506;-2.750;2023-04-03T16:51:59;9.68;;;5.43;;